Flight Track Log - Related Links

Times and Time Zones

All times are in EST time to prevent confusion due to time zone crossing. See the ASQ4956 flight status page for this flight to view local times or setup timezone preferences in your user account.

Time Position Orientation Groundspeed Altitude Reporting Facility
EST Latitude Longitude Course Direction KTS MPH feet Rate Location/Type
Fri 10:36:47 AM 33.6500 -84.4833 11° North 182 209 2,900  Level Atlanta TRACON
Fri 10:37:47 AM 33.6833 -84.5500 301° West 232 267 5,500 2,333 Climbing Atlanta TRACON
Fri 10:38:53 AM 33.7500 -84.5833 337° Northwest 293 337 7,800 1,929 Climbing Atlanta TRACON
Fri 10:41:03 AM 33.8958 -84.4592 35° Northeast 317 365 11,800 1,800 Climbing Atlanta Center
Fri 10:42:00 AM 34.2971 -84.2634 11° North  Level FlightAware Approximate
Fri 10:42:03 AM 33.9817 -84.3869 35° Northeast 355 409 13,500  Level Atlanta Center
Fri 10:43:03 AM 34.0839 -84.3497 17° North 355 409 15,500 1,950 Climbing Atlanta Center
Fri 10:44:03 AM 34.1883 -84.3150 15° North 386 444 17,400 1,650 Climbing Atlanta Center
Fri 10:45:03 AM 34.3075 -84.2753 15° North 397 457 18,800 1,450 Climbing Atlanta Center
Fri 10:46:03 AM 34.4203 -84.2478 11° North 409 471 20,300 1,500 Climbing Atlanta Center
Fri 10:47:03 AM 34.5372 -84.2228 10° North 416 479 21,800 1,250 Climbing Atlanta Center
Fri 10:48:03 AM 34.6603 -84.1928 11° North 431 496 22,800 1,050 Climbing Atlanta Center
Fri 10:49:03 AM 34.7875 -84.1678 North 443 510 23,900 900 Climbing Atlanta Center
Fri 10:50:03 AM 34.9233 -84.1350 11° North 472 543 24,600 850 Climbing Atlanta Center
Fri 10:51:03 AM 35.0611 -84.1022 11° North 493 567 25,600 700 Climbing Atlanta Center
Fri 10:52:03 AM 35.1736 -83.9931 38° Northeast 487 560 26,000 200 Climbing Atlanta Center
Fri 10:53:03 AM 35.1903 -83.8150 83° East 446 513 26,000  Level Atlanta Center
Fri 10:54:03 AM 35.1189 -83.7036 128° Southeast 349 402 26,000 -150 Level Atlanta Center
Fri 10:55:03 AM 35.0208 -83.7067 181° South 277 319 25,700 -850 Descending Atlanta Center
Fri 10:56:03 AM 34.9314 -83.7372 196° South 266 306 24,300 -1,400 Descending Atlanta Center
Fri 10:57:03 AM 34.8542 -83.7578 192° South 304 350 22,900 -1,450 Descending Atlanta Center
Fri 10:58:03 AM 34.7644 -83.7858 194° South 323 372 21,400 -1,500 Descending Atlanta Center
Fri 10:59:03 AM 34.6686 -83.8167 195° South 346 398 19,900 -1,500 Descending Atlanta Center
Fri 11:00:03 AM 34.5747 -83.8444 194° South 351 404 18,400 -1,500 Descending Atlanta Center
Fri 11:01:03 AM 34.4683 -83.8800 195° South 356 410 16,900 -1,650 Descending Atlanta Center
Fri 11:02:03 AM 34.3681 -83.9131 195° South 376 433 15,100 -1,750 Descending Atlanta Center
Fri 11:03:03 AM 34.2639 -83.9458 195° South 383 441 13,400 -1,050 Descending Atlanta Center
Fri 11:04:03 AM 34.1761 -83.9761 196° South 359 413 13,000 -550 Descending Atlanta Center
Fri 11:05:03 AM 34.1094 -84.0211 209° Southwest 304 350 12,300 -1,200 Descending Atlanta Center
Fri 11:06:03 AM 34.0342 -84.0389 191° South 279 321 10,600 -1,467 Descending Atlanta Center
Fri 11:07:18 AM 33.9500 -84.0500 186° South 253 291 9,000 -889 Descending Atlanta TRACON
Fri 11:08:18 AM 33.8833 -84.0500 180° South 222 255 8,600 -789 Descending Atlanta TRACON
Fri 11:09:12 AM 33.8333 -84.0500 180° South 222 255 7,500 -1,257 Descending Atlanta TRACON
Fri 11:10:03 AM 33.7839 -84.0639 193° South 226 260 6,400 -1,405 Descending Atlanta Center
Fri 11:11:03 AM 33.7253 -84.0861 198° South 214 246 4,900 -1,116 Descending Atlanta Center
Fri 11:12:12 AM 33.6667 -84.1333 214° Southwest 215 247 4,000 -419 Descending Atlanta TRACON
Fri 11:13:12 AM 33.6500 -84.2000 253° West 192 221 4,000 -100 Level Atlanta TRACON
Fri 11:14:12 AM 33.6500 -84.2500 270° West 174 200 3,800 -650 Descending Atlanta TRACON
Fri 11:15:12 AM 33.6500 -84.3167 270° West 170 196 2,700 -947 Descending Atlanta TRACON
Fri 11:16:06 AM 33.6500 -84.3500 270° West 136 157 2,000 -722 Descending Atlanta TRACON
Fri 11:17:00 AM 33.6500 -84.3833 270° West 128 147 1,400 -667 Descending Atlanta TRACON
Fri 11:18:00 AM 33.6367 -84.4279 270° West  Level Estimated
Fri 11:25:00 AM 33.6367 -84.4279 103° East  Level Estimated

Login

Don't have an account? Register now (free) for customized features, flight alerts, and more!